Time;durP1;ratioP1;P1;durP2;ratioP2;P2;SDS_P1;SDS_P2;PMS_P1;PMS_P2;Temp;Humidity;BMP_temperature;BMP_pressure;BME280_temperature;BME280_humidity;BME280_pressure;Samples;Min_cycle;Max_cycle;Signal;HPM_P1;HPM_P2
2022/11/06 00:00:39;;;;;;;8.68;4.07;;;;;;;17.59;100.00;101068.13;2099264;28;20043;-74
2022/11/06 00:02:03;;;;;;;7.57;3.78;;;;;;;17.59;100.00;101060.13;2096614;28;20044;-74
2022/11/06 00:03:25;;;;;;;8.98;3.90;;;;;;;17.58;100.00;101066.34;2101905;28;20036;-74
2022/11/06 00:04:47;;;;;;;9.77;4.28;;;;;;;17.57;100.00;101067.25;2100495;28;20052;-74
2022/11/06 00:07:51;;;;;;;8.50;4.43;;;;;;;17.59;100.00;101062.78;2114593;28;20117;-74
2022/11/06 00:09:14;;;;;;;11.88;4.47;;;;;;;17.58;100.00;101066.34;2093791;28;20049;-74
2022/11/06 00:10:37;;;;;;;8.07;4.20;;;;;;;17.59;100.00;101063.63;2093528;28;20060;-74
2022/11/06 00:12:00;;;;;;;8.55;4.30;;;;;;;17.59;100.00;101058.31;2093769;28;20040;-74
2022/11/06 00:13:22;;;;;;;9.30;4.35;;;;;;;17.59;100.00;101058.31;2099759;28;22670;-73
2022/11/06 00:14:44;;;;;;;;;;;;;;;17.53;100.00;101061.91;2104227;28;20044;-74
2022/11/06 00:16:08;;;;;;;6.97;3.70;;;;;;;17.53;100.00;101056.56;2098027;28;20455;-74
2022/11/06 00:17:31;;;;;;;7.30;3.92;;;;;;;17.56;100.00;101052.13;2084846;28;20060;-74
2022/11/06 00:18:54;;;;;;;9.63;4.28;;;;;;;17.57;100.00;101056.56;2092831;28;20059;-74
2022/11/06 00:20:16;;;;;;;8.32;4.63;;;;;;;17.58;100.00;101056.56;2089621;28;20049;-74
2022/11/06 00:21:38;;;;;;;;;;;;;;;17.56;100.00;101052.13;2096318;28;20371;-74
2022/11/06 00:23:01;;;;;;;12.63;4.35;;;;;;;17.58;100.00;101051.22;2090062;28;19924;-73
2022/11/06 00:24:23;;;;;;;8.25;4.32;;;;;;;17.61;100.00;101043.19;2097730;28;20154;-74
2022/11/06 00:25:44;;;;;;;9.07;4.22;;;;;;;17.65;100.00;101042.28;2095627;28;20439;-74
2022/11/06 00:27:07;;;;;;;12.27;4.28;;;;;;;17.68;100.00;101047.59;2094038;28;20192;-74
2022/11/06 00:28:29;;;;;;;8.27;4.03;;;;;;;17.69;100.00;101048.47;2085729;28;20032;-74
2022/11/06 00:29:52;;;;;;;7.22;4.13;;;;;;;17.68;100.00;101036.03;2092788;28;20140;-74
2022/11/06 00:31:16;;;;;;;8.60;4.45;;;;;;;17.68;100.00;101036.03;2103726;28;20036;-73
2022/11/06 00:32:40;;;;;;;7.63;4.30;;;;;;;17.66;100.00;101024.47;2100818;28;20128;-73
2022/11/06 00:34:03;;;;;;;11.00;4.20;;;;;;;17.63;100.00;101022.72;2101311;28;20105;-73
2022/11/06 00:35:26;;;;;;;7.75;3.90;;;;;;;17.62;100.00;101020.06;2095198;28;20139;-74
2022/11/06 00:36:48;;;;;;;9.43;4.78;;;;;;;17.63;100.00;101025.41;2096329;28;20214;-73
2022/11/06 00:38:10;;;;;;;9.50;4.85;;;;;;;17.63;100.00;101020.06;2094851;28;20496;-74
2022/11/06 00:39:32;;;;;;;8.35;4.05;;;;;;;17.64;100.00;101004.91;2086597;28;20056;-73
2022/11/06 00:40:54;;;;;;;11.18;4.55;;;;;;;17.66;100.00;101013.78;2100715;28;20059;-73
2022/11/06 00:42:15;;;;;;;5.72;3.65;;;;;;;17.67;100.00;101004.88;2096424;28;20557;-73
2022/11/06 00:43:38;;;;;;;7.78;3.85;;;;;;;17.70;100.00;101010.19;2100200;28;20058;-74
2022/11/06 00:45:00;;;;;;;8.23;4.30;;;;;;;17.75;100.00;101005.69;2095033;28;20040;-75
2022/11/06 00:46:22;;;;;;;9.05;4.35;;;;;;;17.76;100.00;101005.69;2101249;28;20134;-74
2022/11/06 00:47:46;;;;;;;9.32;4.35;;;;;;;17.77;100.00;101006.56;2089820;28;20060;-75
2022/11/06 00:49:09;;;;;;;10.30;4.70;;;;;;;17.76;100.00;101000.34;2100820;28;20599;-73
2022/11/06 00:50:32;;;;;;;9.68;3.88;;;;;;;17.78;100.00;101001.22;2097476;28;20044;-73
2022/11/06 00:51:54;;;;;;;8.90;4.15;;;;;;;17.81;100.00;101005.63;2095417;28;20052;-74
2022/11/06 00:53:17;;;;;;;7.10;4.03;;;;;;;17.82;100.00;100994.94;2094985;28;20050;-74
2022/11/06 00:54:39;;;;;;;8.70;4.10;;;;;;;17.81;100.00;100998.50;2098119;28;20045;-74
2022/11/06 00:56:06;;;;;;;6.90;3.38;;;;;;;17.81;100.00;100993.16;2102466;28;20040;-74
2022/11/06 00:57:29;;;;;;;7.72;3.50;;;;;;;17.80;100.00;100993.16;2088832;28;20152;-74
2022/11/06 00:58:51;;;;;;;7.90;3.65;;;;;;;17.80;100.00;101002.06;2084093;28;21120;-74
2022/11/06 01:00:16;;;;;;;10.68;3.88;;;;;;;17.80;100.00;101003.84;2092633;28;20082;-74
2022/11/06 01:01:41;;;;;;;8.48;3.78;;;;;;;17.81;100.00;101002.94;2081031;28;20080;-74
2022/11/06 01:03:05;;;;;;;7.13;3.97;;;;;;;17.80;100.00;101003.84;2089537;28;20075;-73
2022/11/06 01:04:27;;;;;;;7.18;4.07;;;;;;;17.80;100.00;100986.03;2094697;28;20131;-74
2022/11/06 01:05:49;;;;;;;5.72;3.20;;;;;;;17.85;100.00;100986.88;2092425;28;20040;-73
2022/11/06 01:07:12;;;;;;;9.45;3.17;;;;;;;17.97;100.00;100977.88;2094705;28;20554;-73
2022/11/06 01:08:35;;;;;;;10.00;3.45;;;;;;;18.12;100.00;100979.44;2095119;28;20052;-74
2022/11/06 01:09:58;;;;;;;6.07;3.28;;;;;;;18.23;100.00;100970.44;2078231;28;20515;-73
2022/11/06 01:11:22;;;;;;;7.43;3.28;;;;;;;18.37;100.00;100967.59;2083463;28;20048;-73
2022/11/06 01:12:45;;;;;;;7.88;3.60;;;;;;;18.47;100.00;100973.66;2086683;28;20177;-73
2022/11/06 01:14:08;;;;;;;8.07;3.97;;;;;;;18.53;100.00;100968.25;2094052;28;20072;-73
2022/11/06 01:15:30;;;;;;;8.10;3.30;;;;;;;18.55;100.00;100972.72;2094273;28;20068;-73
2022/11/06 01:16:52;;;;;;;9.48;2.97;;;;;;;18.54;100.00;100964.66;2100743;28;20543;-73
2022/11/06 01:18:16;;;;;;;11.25;3.65;;;;;;;18.53;100.00;100973.59;2097534;28;20769;-73
2022/11/06 01:19:37;;;;;;;6.97;3.50;;;;;;;18.49;100.00;100972.75;2103202;28;20109;-74
2022/11/06 01:21:03;;;;;;;7.63;3.72;;;;;;;18.44;100.00;100974.63;2089161;28;20033;-73
2022/11/06 01:22:25;;;;;;;8.18;3.53;;;;;;;18.39;100.00;100975.56;2101405;28;20060;-73
2022/11/06 01:23:52;;;;;;;7.45;4.00;;;;;;;18.38;100.00;100966.66;2088930;28;20312;-73
2022/11/06 01:25:14;;;;;;;5.07;3.10;;;;;;;18.41;100.00;100965.72;2095214;28;20080;-73
2022/11/06 01:26:36;;;;;;;9.38;3.03;;;;;;;18.45;100.00;100971.00;2086392;28;20540;-73
2022/11/06 01:27:58;;;;;;;6.70;3.20;;;;;;;18.46;100.00;100967.44;2088232;28;20076;-73
2022/11/06 01:29:20;;;;;;;6.40;3.33;;;;;;;18.45;100.00;100960.31;2100499;28;20044;-73
2022/11/06 01:30:42;;;;;;;5.40;2.58;;;;;;;18.51;100.00;100940.66;2097484;28;20086;-74
2022/11/06 01:32:06;;;;;;;11.00;3.78;;;;;;;18.61;100.00;100943.19;2086565;28;20033;-74
2022/11/06 01:33:30;;;;;;;9.32;3.17;;;;;;;18.69;100.00;100935.97;2106950;28;20054;-74
2022/11/06 01:34:52;;;;;;;10.27;3.63;;;;;;;18.71;100.00;100939.47;2088022;28;20049;-74
2022/11/06 01:36:18;;;;;;;11.55;3.70;;;;;;;18.71;100.00;100936.81;2088016;28;20057;-75
2022/11/06 01:37:40;;;;;;;11.75;4.13;;;;;;;18.73;100.00;100934.09;2095339;28;20074;-74
2022/11/06 01:39:05;;;;;;;6.05;2.80;;;;;;;18.74;100.00;100935.00;2102493;28;20048;-73
2022/11/06 01:40:27;;;;;;;6.65;2.55;;;;;;;18.77;100.00;100946.56;2082271;28;20069;-73
2022/11/06 01:41:51;;;;;;;6.25;2.40;;;;;;;18.82;100.00;100931.31;2092097;28;20531;-74
2022/11/06 01:43:15;;;;;;;8.35;2.97;;;;;;;18.86;100.00;100933.00;2085536;28;20045;-74
2022/11/06 01:45:17;;;;;;;4.95;2.92;;;;;;;18.89;100.00;100945.47;2087201;28;20535;-74
2022/11/06 01:46:39;;;;;;;8.93;3.15;;;;;;;18.92;100.00;100942.72;2097085;28;20051;-73
2022/11/06 01:48:04;;;;;;;7.75;3.10;;;;;;;18.95;100.00;100946.25;2094602;28;20044;-74
2022/11/06 01:49:31;;;;;;;6.03;2.70;;;;;;;18.95;100.00;100956.06;2086584;28;20621;-74
2022/11/06 01:50:57;;;;;;;6.32;2.63;;;;;;;18.96;100.00;100958.75;2086881;28;20449;-74
2022/11/06 01:52:23;;;;;;;5.25;3.17;;;;;;;19.00;100.00;100965.78;2095026;28;20044;-74
2022/11/06 01:53:46;;;;;;;6.47;2.67;;;;;;;19.05;100.00;100961.25;2096663;28;20147;-73
2022/11/06 01:55:11;;;;;;;5.45;2.90;;;;;;;19.07;100.00;100962.13;2087405;28;20053;-73
2022/11/06 01:56:35;;;;;;;5.07;2.65;;;;;;;19.06;100.00;100963.03;2086645;28;20044;-74
2022/11/06 01:58:00;;;;;;;5.07;2.95;;;;;;;19.04;100.00;100961.25;2100233;28;20442;-74
2022/11/06 01:59:25;;;;;;;6.47;2.75;;;;;;;19.01;100.00;100969.34;2096572;28;20040;-74
2022/11/06 02:00:48;;;;;;;6.72;3.28;;;;;;;18.94;100.00;100965.91;2095239;28;20087;-74
2022/11/06 02:02:10;;;;;;;8.00;3.20;;;;;;;18.89;100.00;100972.22;2094473;28;20057;-74
2022/11/06 02:03:32;;;;;;;6.85;3.67;;;;;;;18.81;100.00;100969.66;2098902;28;20526;-74
2022/11/06 02:04:56;;;;;;;9.23;3.08;;;;;;;18.77;100.00;100973.31;2108426;28;20295;-74
2022/11/06 02:06:19;;;;;;;5.95;2.97;;;;;;;18.76;100.00;100966.19;2105228;28;20077;-74
2022/11/06 02:07:43;;;;;;;6.82;3.28;;;;;;;18.80;100.00;100977.69;2102890;28;20499;-74
2022/11/06 02:09:10;;;;;;;8.27;3.55;;;;;;;18.76;100.00;100974.19;2105794;28;20047;-74
2022/11/06 02:10:33;;;;;;;9.10;3.10;;;;;;;18.71;100.00;100968.00;2095881;28;20063;-74
2022/11/06 02:12:01;;;;;;;8.27;3.28;;;;;;;18.68;100.00;100974.31;2094551;28;20071;-73
2022/11/06 02:13:32;;;;;;;6.88;3.25;;;;;;;18.65;100.00;100973.44;2089344;28;20514;-73
2022/11/06 02:15:02;;;;;;;8.10;3.78;;;;;;;18.59;100.00;100976.22;2094402;28;20157;-74
2022/11/06 02:16:31;;;;;;;10.32;3.10;;;;;;;18.58;100.00;100987.81;2087059;28;20465;-73
2022/11/06 02:18:13;;;;;;;7.60;3.17;;;;;;;18.56;100.00;100977.16;2085755;28;20037;-73
2022/11/06 02:19:53;;;;;;;5.55;3.10;;;;;;;18.52;100.00;100979.84;2096742;28;20041;-73
2022/11/06 02:21:31;;;;;;;7.25;2.95;;;;;;;18.50;100.00;100979.00;2096660;28;20048;-74
2022/11/06 02:23:06;;;;;;;6.10;3.20;;;;;;;18.50;100.00;100989.69;2080128;28;20045;-74
2022/11/06 02:25:10;;;;;;;7.18;3.22;;;;;;;18.49;100.00;100983.47;2102339;28;20051;-73
2022/11/06 02:27:01;;;;;;;11.95;3.90;;;;;;;18.49;100.00;100979.91;2096746;28;20157;-73
2022/11/06 02:28:28;;;;;;;7.78;3.35;;;;;;;18.55;100.00;100987.84;2096193;28;20105;-74
2022/11/06 02:29:55;;;;;;;7.15;3.65;;;;;;;18.63;100.00;100981.53;2095085;28;20040;-74
2022/11/06 02:31:25;;;;;;;8.32;3.40;;;;;;;18.65;100.00;100976.13;2081472;28;20441;-74
2022/11/06 02:32:54;;;;;;;8.48;3.42;;;;;;;18.68;100.00;100978.78;2093987;28;20098;-74
2022/11/06 02:34:20;;;;;;;6.50;3.40;;;;;;;18.76;100.00;100976.00;2103140;28;20043;-74
2022/11/06 02:35:49;;;;;;;5.68;3.20;;;;;;;18.85;100.00;100971.38;2094980;28;20041;-73
2022/11/06 02:37:16;;;;;;;6.95;3.03;;;;;;;18.90;100.00;100980.25;2095055;28;20492;-74
2022/11/06 02:38:42;;;;;;;6.65;3.83;;;;;;;18.95;100.00;100975.69;2094635;28;20041;-74
2022/11/06 02:40:08;;;;;;;7.25;3.13;;;;;;;19.01;100.00;100966.69;2093383;28;20097;-74
2022/11/06 02:41:35;;;;;;;7.18;3.00;;;;;;;19.06;100.00;100967.47;2100855;28;20458;-74
2022/11/06 02:43:02;;;;;;;5.43;2.90;;;;;;;19.06;100.00;100965.69;2088151;28;20444;-74
2022/11/06 02:44:29;;;;;;;7.80;3.17;;;;;;;19.05;100.00;100977.31;2094076;28;20143;-74
2022/11/06 02:45:57;;;;;;;7.65;3.22;;;;;;;19.07;100.00;100970.16;2088662;28;20168;-74
2022/11/06 02:47:22;;;;;;;9.25;2.72;;;;;;;19.06;100.00;100965.69;2088787;28;20060;-73
2022/11/06 02:48:51;;;;;;;4.72;2.80;;;;;;;19.07;100.00;100956.75;2086816;28;20428;-74
2022/11/06 02:50:19;;;;;;;10.15;3.47;;;;;;;19.08;100.00;100947.84;2084865;28;20057;-74
2022/11/06 02:51:45;;;;;;;9.13;3.92;;;;;;;19.11;100.00;100946.88;2100659;28;20048;-74
2022/11/06 02:53:10;;;;;;;11.43;3.83;;;;;;;19.14;100.00;100953.97;2096083;28;20055;-74
2022/11/06 02:54:35;;;;;;;8.65;3.28;;;;;;;19.17;100.00;100961.94;2094468;28;20475;-73
2022/11/06 02:56:05;;;;;;;10.40;3.78;;;;;;;19.17;100.00;100973.53;2092093;28;20040;-74
2022/11/06 02:57:30;;;;;;;8.85;3.85;;;;;;;19.13;100.00;100971.84;2095389;28;20056;-74
2022/11/06 02:59:02;;;;;;;5.97;3.03;;;;;;;19.09;100.00;100965.66;2085978;28;20044;-75
2022/11/06 03:00:24;;;;;;;7.03;3.22;;;;;;;19.03;100.00;100948.81;2085834;28;20113;-74
2022/11/06 03:01:50;;;;;;;9.00;3.85;;;;;;;18.97;100.00;100947.09;2091752;28;20055;-74
2022/11/06 03:03:20;;;;;;;11.30;3.67;;;;;;;18.89;100.00;100948.16;2090121;28;20044;-74
2022/11/06 03:04:49;;;;;;;6.15;3.97;;;;;;;18.79;100.00;100955.41;2101809;28;20047;-73
2022/11/06 03:06:16;;;;;;;9.32;4.30;;;;;;;18.70;100.00;100953.78;2112113;28;20080;-74
2022/11/06 03:07:43;;;;;;;9.45;4.38;;;;;;;18.64;100.00;100961.88;2089542;28;20095;-74
2022/11/06 03:09:09;;;;;;;8.93;3.85;;;;;;;18.57;100.00;100954.88;2086413;28;20501;-74
2022/11/06 03:10:38;;;;;;;9.32;3.90;;;;;;;18.54;100.00;100962.00;2093872;28;20143;-74
2022/11/06 03:12:07;;;;;;;8.23;4.00;;;;;;;18.51;100.00;100962.91;2095298;28;20448;-74
2022/11/06 03:13:40;;;;;;;7.32;4.60;;;;;;;18.46;100.00;100966.56;2095418;28;20195;-74
2022/11/06 03:15:15;;;;;;;9.68;4.10;;;;;;;18.40;100.00;100967.53;2095574;28;20097;-74
2022/11/06 03:16:49;;;;;;;11.52;4.32;;;;;;;18.33;100.00;100966.72;2095475;28;20139;-74
2022/11/06 03:18:15;;;;;;;10.70;3.78;;;;;;;18.30;100.00;100958.75;2088551;28;20199;-74
2022/11/06 03:19:45;;;;;;;8.40;4.18;;;;;;;18.27;100.00;100969.47;2094200;28;20053;-74
2022/11/06 03:21:18;;;;;;;6.20;3.75;;;;;;;18.25;100.00;100968.59;2094804;28;20052;-74
2022/11/06 03:22:43;;;;;;;10.10;4.07;;;;;;;18.24;100.00;100972.19;2103366;28;20132;-73
2022/11/06 03:24:13;;;;;;;8.82;3.88;;;;;;;18.23;100.00;100972.22;2087179;28;20424;-74
2022/11/06 03:25:43;;;;;;;9.55;4.47;;;;;;;18.21;100.00;100979.34;2101069;28;20146;-74
2022/11/06 03:27:12;;;;;;;11.73;4.68;;;;;;;18.19;100.00;100966.00;2096450;28;20409;-74
2022/11/06 03:28:39;;;;;;;7.72;3.50;;;;;;;18.18;100.00;100968.72;2093903;28;20405;-74
2022/11/06 03:30:04;;;;;;;9.40;4.28;;;;;;;18.18;100.00;100969.56;2096541;28;20058;-74
2022/11/06 03:31:41;;;;;;;8.40;3.92;;;;;;;18.18;100.00;100971.38;2088344;28;20055;-74
2022/11/06 03:33:13;;;;;;;8.38;3.72;;;;;;;18.20;100.00;100970.44;2094992;28;20052;-74
2022/11/06 03:34:42;;;;;;;9.82;3.90;;;;;;;18.23;100.00;100964.19;2101434;28;20075;-74
2022/11/06 03:36:10;;;;;;;8.23;3.33;;;;;;;18.26;100.00;100964.13;2087998;28;20460;-74
2022/11/06 03:37:38;;;;;;;9.05;3.75;;;;;;;18.30;100.00;100961.44;2094069;28;20044;-74
2022/11/06 03:39:03;;;;;;;6.93;3.13;;;;;;;18.33;100.00;100966.72;2094529;28;20579;-74
2022/11/06 03:40:30;;;;;;;9.68;3.42;;;;;;;18.38;100.00;100961.31;2094081;28;20156;-74
2022/11/06 03:41:59;;;;;;;8.27;3.72;;;;;;;18.43;100.00;100963.94;2088522;28;20044;-74
2022/11/06 03:43:26;;;;;;;8.52;3.50;;;;;;;18.43;100.00;100956.81;2084553;28;20785;-74
2022/11/06 03:44:54;;;;;;;6.55;3.72;;;;;;;18.44;100.00;100958.56;2083951;28;20098;-73
2022/11/06 03:46:20;;;;;;;9.95;3.55;;;;;;;18.45;100.00;100954.09;2094641;28;20051;-73
2022/11/06 03:47:47;;;;;;;7.18;3.92;;;;;;;18.41;100.00;100952.38;2079777;28;20057;-73
2022/11/06 03:49:14;;;;;;;8.52;3.47;;;;;;;18.42;100.00;100949.69;2083776;28;20144;-73
2022/11/06 03:50:41;;;;;;;5.30;3.20;;;;;;;18.44;100.00;100953.22;2078109;28;20099;-73
2022/11/06 03:52:07;;;;;;;6.93;3.30;;;;;;;18.49;100.00;100942.47;2079496;28;20087;-74
2022/11/06 03:53:35;;;;;;;6.15;3.05;;;;;;;18.53;100.00;100963.78;2094698;28;20102;-74
2022/11/06 03:55:00;;;;;;;10.30;3.58;;;;;;;18.54;100.00;100948.63;2094589;28;20555;-74
2022/11/06 03:56:28;;;;;;;7.40;3.42;;;;;;;18.61;100.00;100945.00;2094546;28;20041;-74
2022/11/06 03:57:55;;;;;;;8.05;3.28;;;;;;;18.68;100.00;100942.22;2086606;28;20090;-74
2022/11/06 03:59:22;;;;;;;7.40;3.10;;;;;;;18.68;100.00;100946.69;2091976;28;20044;-73
2022/11/06 04:00:44;;;;;;;9.27;3.22;;;;;;;18.65;100.00;100952.94;2093837;28;20107;-74
2022/11/06 04:02:07;;;;;;;;;;;;;;;18.57;100.00;100946.84;2095197;28;20047;-73
2022/11/06 04:03:35;;;;;;;5.80;3.10;;;;;;;18.59;100.00;100936.09;2095945;28;19977;-73
2022/11/06 04:05:02;;;;;;;7.18;2.92;;;;;;;18.63;100.00;100938.72;2094268;28;20056;-74
2022/11/06 04:06:29;;;;;;;9.15;2.88;;;;;;;18.67;100.00;100940.44;2086184;28;20107;-73
2022/11/06 04:14:49;;;;;;;11.45;4.25;;;;;;;18.76;100.00;100943.91;2110673;28;20131;-74
2022/11/06 04:16:12;;;;;;;8.27;3.10;;;;;;;18.74;100.00;100945.69;2096527;28;20059;-74
2022/11/06 04:17:35;;;;;;;9.88;3.15;;;;;;;18.73;100.00;100950.16;2092035;28;20052;-74
2022/11/06 04:18:58;;;;;;;7.97;3.13;;;;;;;18.70;100.00;100945.75;2087682;28;20160;-74
2022/11/06 04:22:21;;;;;;;7.88;3.35;;;;;;;18.72;100.00;100951.06;2096165;28;20492;-73
2022/11/06 04:27:38;;;;;;;7.63;2.72;;;;;;;18.89;100.00;100945.47;2087782;28;20049;-74
2022/11/06 04:29:09;;;;;;;6.45;2.60;;;;;;;18.94;100.00;100943.59;2094829;28;20045;-74
2022/11/06 04:30:37;;;;;;;6.72;2.60;;;;;;;18.94;100.00;100939.13;2092508;28;20045;-74
2022/11/06 04:32:09;;;;;;;7.50;3.70;;;;;;;18.94;100.00;100941.81;2085461;28;20537;-73
2022/11/06 04:33:38;;;;;;;8.73;3.05;;;;;;;18.93;100.00;100942.72;2091924;28;20044;-73
2022/11/06 04:35:06;;;;;;;11.40;3.65;;;;;;;18.92;100.00;100935.59;2094165;28;20094;-74
2022/11/06 04:36:42;;;;;;;7.78;3.15;;;;;;;18.93;100.00;100941.81;2095491;28;20098;-74
2022/11/06 04:38:10;;;;;;;7.75;2.75;;;;;;;18.92;100.00;100935.59;2087286;28;20048;-74
2022/11/06 04:39:43;;;;;;;5.93;2.85;;;;;;;18.92;100.00;100940.94;2100772;28;20052;-73
2022/11/06 04:41:17;;;;;;;5.93;2.70;;;;;;;18.98;100.00;100940.84;2087146;28;20048;-74
2022/11/06 04:42:43;;;;;;;7.38;2.70;;;;;;;19.00;100.00;100939.03;2095464;28;20048;-73
2022/11/06 04:44:11;;;;;;;8.15;3.08;;;;;;;19.00;100.00;100933.69;2094011;28;20064;-74
2022/11/06 04:45:40;;;;;;;10.13;3.20;;;;;;;18.96;100.00;100933.78;2085765;28;20053;-73
2022/11/06 04:47:04;;;;;;;7.95;2.85;;;;;;;18.94;100.00;100932.91;2097063;28;20366;-73
2022/11/06 04:48:28;;;;;;;10.50;2.95;;;;;;;19.00;100.00;100927.44;2095323;28;20534;-74
2022/11/06 04:49:53;;;;;;;6.68;2.90;;;;;;;19.03;100.00;100930.94;2086708;28;20064;-73
2022/11/06 04:51:22;;;;;;;10.57;3.17;;;;;;;19.05;100.00;100920.22;2085125;28;20109;-74
2022/11/06 04:52:44;;;;;;;6.95;3.40;;;;;;;19.07;100.00;100915.72;2088125;28;20127;-74
2022/11/06 04:54:09;;;;;;;7.20;2.65;;;;;;;19.07;100.00;100913.94;2089216;28;20073;-74
2022/11/06 04:55:32;;;;;;;9.75;2.90;;;;;;;19.12;100.00;100900.47;2103103;28;20139;-74
2022/11/06 04:56:58;;;;;;;11.25;3.63;;;;;;;19.22;100.00;100909.25;2101554;28;20106;-74
2022/11/06 04:58:21;;;;;;;8.90;2.85;;;;;;;19.30;100.00;100916.22;2103892;28;20089;-74
2022/11/06 04:59:42;;;;;;;9.32;2.78;;;;;;;19.29;100.00;100916.25;2086654;28;20103;-74
2022/11/06 05:01:05;;;;;;;5.53;2.97;;;;;;;19.24;100.00;100912.75;2106011;28;20040;-73
2022/11/06 05:02:26;;;;;;;9.63;3.88;;;;;;;19.19;100.00;100909.28;2094786;28;20081;-73
2022/11/06 05:03:49;;;;;;;8.05;2.78;;;;;;;19.14;100.00;100921.88;2080855;28;20064;-74
2022/11/06 05:05:11;;;;;;;10.68;4.05;;;;;;;19.09;100.00;100921.97;2092335;28;20105;-73
2022/11/06 05:06:34;;;;;;;10.50;3.92;;;;;;;19.04;100.00;100911.31;2097811;28;20138;-74
2022/11/06 05:07:57;;;;;;;8.45;2.75;;;;;;;19.01;100.00;100916.72;2097264;28;20044;-74
2022/11/06 05:09:19;;;;;;;12.70;2.67;;;;;;;19.01;100.00;100910.50;2086532;28;20095;-74
2022/11/06 05:10:42;;;;;;;7.55;2.70;;;;;;;19.05;100.00;100920.22;2099728;28;20097;-74
2022/11/06 05:12:04;;;;;;;8.20;2.95;;;;;;;19.11;100.00;100915.66;2097324;28;20040;-74
2022/11/06 05:13:27;;;;;;;9.48;3.00;;;;;;;19.15;100.00;100911.16;2103307;28;20671;-74
2022/11/06 05:14:49;;;;;;;8.30;3.45;;;;;;;19.19;100.00;100902.13;2089030;28;20049;-74
2022/11/06 05:16:12;;;;;;;11.80;3.15;;;;;;;19.25;100.00;100898.47;2083750;28;20052;-72
2022/11/06 05:17:35;;;;;;;9.93;3.03;;;;;;;19.28;100.00;100904.66;2095137;28;20094;-72
2022/11/06 05:18:56;;;;;;;9.35;2.78;;;;;;;19.33;100.00;100904.56;2094607;28;20423;-72
2022/11/06 05:20:19;;;;;;;9.07;2.75;;;;;;;19.39;100.00;100896.44;2082775;28;20496;-72
2022/11/06 05:23:21;;;;;;;6.68;2.80;;;;;;;19.45;100.00;100888.28;2090987;28;20048;-74
2022/11/06 05:24:43;;;;;;;7.13;2.80;;;;;;;19.52;100.00;100873.00;2100172;28;20178;-74
2022/11/06 05:26:07;;;;;;;7.70;2.70;;;;;;;19.56;100.00;100864.03;2103446;28;20538;-74
2022/11/06 05:27:29;;;;;;;7.65;2.55;;;;;;;19.59;100.00;100861.28;2094322;28;20360;-73
2022/11/06 05:28:52;;;;;;;8.50;2.70;;;;;;;19.64;100.00;100872.75;2099008;28;20044;-74
2022/11/06 05:30:14;;;;;;;8.35;2.90;;;;;;;19.71;100.00;100864.59;2095939;28;20132;-73
2022/11/06 05:31:36;;;;;;;16.02;3.83;;;;;;;19.79;100.00;100843.88;2102844;28;20079;-73
2022/11/06 05:32:59;;;;;;;8.63;2.70;;;;;;;19.90;100.00;100854.38;2096974;28;20105;-72
2022/11/06 05:34:21;;;;;;;8.85;2.85;;;;;;;20.00;100.00;100868.47;2101542;28;20036;-74
2022/11/06 05:35:43;;;;;;;5.82;2.88;;;;;;;20.03;100.00;100857.66;2085151;28;20052;-74
2022/11/06 05:37:07;;;;;;;5.53;3.10;;;;;;;20.07;100.00;100854.03;2094279;28;20534;-73
2022/11/06 05:38:28;;;;;;;5.68;2.70;;;;;;;20.08;100.00;100859.34;2087110;28;20138;-74
2022/11/06 05:39:51;;;;;;;9.55;3.25;;;;;;;20.08;100.00;100847.75;2097165;28;20052;-73
2022/11/06 05:41:12;;;;;;;8.20;3.05;;;;;;;20.08;100.00;100859.34;2094314;28;20655;-73
2022/11/06 05:42:35;;;;;;;5.07;2.20;;;;;;;20.07;100.00;100849.53;2086505;28;20049;-73
2022/11/06 05:43:57;;;;;;;10.70;3.42;;;;;;;20.11;100.00;100858.38;2093107;28;20101;-74
2022/11/06 05:45:22;;;;;;;5.78;2.45;;;;;;;20.11;100.00;100859.28;2101891;28;20040;-74
2022/11/06 05:46:45;;;;;;;6.43;2.38;;;;;;;20.11;100.00;100858.38;2096540;28;20515;-74
2022/11/06 05:48:07;;;;;;;7.47;2.85;;;;;;;20.11;100.00;100858.38;2094598;28;20082;-73
2022/11/06 05:49:29;;;;;;;6.90;2.70;;;;;;;20.10;100.00;100848.56;2080941;28;20053;-73
2022/11/06 05:50:52;;;;;;;4.53;2.13;;;;;;;20.14;100.00;100850.28;2087005;28;20470;-74
2022/11/06 05:52:16;;;;;;;13.55;3.65;;;;;;;20.16;100.00;100848.44;2080727;28;20099;-73
2022/11/06 05:53:37;;;;;;;8.63;2.60;;;;;;;20.18;100.00;100844.81;2094797;28;20698;-74
2022/11/06 05:55:00;;;;;;;7.50;3.15;;;;;;;20.21;100.00;100859.97;2080704;28;20053;-74
2022/11/06 05:56:21;;;;;;;7.07;2.53;;;;;;;20.23;100.00;100858.09;2092384;28;20071;-73
2022/11/06 05:57:43;;;;;;;10.82;3.30;;;;;;;20.26;100.00;100847.31;2097243;28;20111;-74
2022/11/06 05:59:06;;;;;;;4.88;2.35;;;;;;;20.30;100.00;100857.94;2094346;28;20147;-74
2022/11/06 06:00:29;;;;;;;8.65;2.92;;;;;;;20.34;100.00;100864.16;2094095;28;20079;-73
2022/11/06 06:01:51;;;;;;;4.72;1.98;;;;;;;20.39;100.00;100861.38;2090185;28;20119;-74
2022/11/06 06:03:14;;;;;;;6.63;2.13;;;;;;;20.43;100.00;100855.00;2089987;28;20053;-74
2022/11/06 06:04:36;;;;;;;11.10;3.20;;;;;;;20.46;100.00;100863.88;2089202;28;20049;-74
2022/11/06 06:05:59;;;;;;;6.38;2.15;;;;;;;20.47;100.00;100857.59;2094649;28;20044;-74
2022/11/06 06:07:23;;;;;;;6.65;2.13;;;;;;;20.46;100.00;100860.31;2080656;28;20187;-73
2022/11/06 06:08:46;;;;;;;8.40;2.60;;;;;;;20.46;100.00;100836.19;2092055;28;20044;-73
2022/11/06 06:10:10;;;;;;;5.95;2.40;;;;;;;20.50;100.00;100854.81;2080778;28;20069;-73
2022/11/06 06:11:31;;;;;;;8.30;2.78;;;;;;;20.52;100.00;100869.09;2092384;28;20037;-74
2022/11/06 06:12:53;;;;;;;6.57;2.10;;;;;;;20.53;100.00;100862.81;2080578;28;20045;-74
2022/11/06 06:14:16;;;;;;;6.00;2.42;;;;;;;20.57;100.00;100868.97;2086264;28;20169;-74
2022/11/06 06:15:39;;;;;;;8.05;2.50;;;;;;;20.62;100.00;100867.06;2086123;28;20056;-73
2022/11/06 06:17:02;;;;;;;8.25;2.38;;;;;;;20.65;100.00;100862.53;2083827;28;20044;-73
2022/11/06 06:18:24;;;;;;;4.25;2.30;;;;;;;20.67;100.00;100868.75;2091696;28;20229;-74
2022/11/06 06:19:45;;;;;;;5.22;2.00;;;;;;;20.69;100.00;100872.25;2094355;28;20048;-74
2022/11/06 06:21:08;;;;;;;6.45;2.90;;;;;;;20.70;100.00;100870.44;2077791;28;20045;-73
2022/11/06 06:22:32;;;;;;;5.47;2.30;;;;;;;20.72;100.00;100875.78;2083537;28;20057;-74
2022/11/06 06:23:54;;;;;;;5.07;1.65;;;;;;;20.74;100.00;100880.22;2086023;28;20127;-73
2022/11/06 06:25:16;;;;;;;7.90;2.35;;;;;;;20.75;100.00;100889.09;2094447;28;20438;-73
2022/11/06 06:26:38;;;;;;;7.47;2.20;;;;;;;20.75;100.00;100884.63;2100735;28;20090;-74
2022/11/06 06:28:01;;;;;;;10.52;2.53;;;;;;;20.75;100.00;100891.78;2085654;28;20127;-74
2022/11/06 06:29:23;;;;;;;7.55;2.22;;;;;;;20.74;100.00;100892.75;2083343;28;20081;-74
2022/11/06 06:30:45;;;;;;;5.32;2.42;;;;;;;20.73;100.00;100902.59;2085961;28;20098;-74
2022/11/06 06:32:08;;;;;;;8.02;2.92;;;;;;;20.71;100.00;100884.75;2094448;28;20063;-74
2022/11/06 06:33:30;;;;;;;4.10;1.88;;;;;;;20.69;100.00;100891.03;2088395;28;20447;-74
2022/11/06 06:34:52;;;;;;;6.45;2.70;;;;;;;20.70;100.00;100886.53;2076109;28;20056;-73
2022/11/06 06:36:15;;;;;;;9.85;2.25;;;;;;;20.71;100.00;100895.47;2083606;28;20045;-74
2022/11/06 06:37:39;;;;;;;7.13;2.33;;;;;;;20.70;100.00;100878.50;2082928;28;20140;-74
2022/11/06 06:39:02;;;;;;;7.38;1.75;;;;;;;20.69;100.00;100901.75;2094421;28;20097;-74
2022/11/06 06:40:23;;;;;;;7.55;2.78;;;;;;;20.74;100.00;100933.88;2096304;28;20114;-74
2022/11/06 06:41:46;;;;;;;6.50;2.17;;;;;;;20.73;100.00;100956.25;2088817;28;20040;-74
2022/11/06 06:43:08;;;;;;;17.60;3.05;;;;;;;20.43;100.00;100975.69;2092171;28;20056;-73
2022/11/06 06:44:30;;;;;;;7.15;2.08;;;;;;;19.75;100.00;100984.19;2090863;28;20049;-73
2022/11/06 06:45:52;;;;;;;18.05;3.85;;;;;;;19.09;100.00;100968.34;2087387;28;20061;-74
2022/11/06 06:47:16;;;;;;;4.32;2.03;;;;;;;18.59;100.00;100965.50;2099654;28;20450;-74